This is the latest recevied weather packets stored in our database for station/object IZ2MHJ-3. If no packets are shown the sender has not sent any weather packets the latest 10 day(s).
| Time | Temp. | Humidity | Pressure | Rain* | Wind** | Luminosity | Snow |
|---|---|---|---|---|---|---|---|
| 1777911903 | 24.44° C | 31% | 1016.7 hPa | - | - | - | - |
| 1777910703 | 24.44° C | 32% | 1016.9 hPa | - | - | - | - |
| 1777909503 | 23.89° C | 32% | 1017 hPa | - | - | - | - |
| 1777908303 | 23.89° C | 32% | 1017.1 hPa | - | - | - | - |
| 1777907102 | 23.89° C | 33% | 1017.1 hPa | - | - | - | - |
| 1777905901 | 25° C | 32% | 1017.3 hPa | - | - | - | - |
| 1777904700 | 24.44° C | 34% | 1017.5 hPa | - | - | - | - |
| 1777903500 | 23.89° C | 34% | 1017.7 hPa | - | - | - | - |
| 1777902300 | 24.44° C | 34% | 1017.7 hPa | - | - | - | - |
| 1777901099 | 24.44° C | 33% | 1017.7 hPa | - | - | - | - |
| 1777899899 | 25° C | 32% | 1018 hPa | - | - | - | - |
| 1777898699 | 23.89° C | 34% | 1018.1 hPa | - | - | - | - |
| 1777897499 | 24.44° C | 31% | 1018.3 hPa | - | - | - | - |
| 1777896298 | 25.56° C | 32% | 1018.3 hPa | - | - | - | - |
| 1777895098 | 25.56° C | 32% | 1018.3 hPa | - | - | - | - |
| 1777893898 | 25° C | 30% | 1018.3 hPa | - | - | - | - |
| 1777892697 | 25.56° C | 30% | 1018.4 hPa | - | - | - | - |
| 1777891497 | 25° C | 32% | 1018.7 hPa | - | - | - | - |
| 1777890297 | 25.56° C | 30% | 1018.8 hPa | - | - | - | - |
| 1777889096 | 25.56° C | 30% | 1018.8 hPa | - | - | - | - |
| 1777887896 | 27.78° C | 27% | 1018.6 hPa | - | - | - | - |
| 1777886696 | 26.67° C | 30% | 1018.7 hPa | - | - | - | - |
| 1777885496 | 24.44° C | 32% | 1019 hPa | - | - | - | - |
| 1777884295 | 25.56° C | 29% | 1018.8 hPa | - | - | - | - |
| 1777883095 | 25° C | 33% | 1018.8 hPa | - | - | - | - |
* Rain since midnight (hover to see other rain measurements)
** Current wind speed in m/s (hover to see current wind gust speed)